Weather observations for the past three days for
Joseph A Hardy Connellsville Airport
Imperial (Metric)
Date Time (edt) Wind (mph) Vis. (mi.) Weather Sky Cond. Temperature (ºF) Relative Humidity Wind Chill (°F) Heat Index (°F) Pressure Precipitation (in)
Air Dwpt 6 hour altimeter (in) sea level (mb) 1 hr 3 hr 6 hr
Max. Min.
04 15:35 SW 13 G 21 10.00 Mostly Cloudy BKN055 BKN085 70.9 47.3 43% 29.8 0.0
04 15:15 SW 14 10.00 Partly Cloudy SCT055 SCT090 71.2 47.7 43% 29.8 0.0
04 14:55 S 17 G 23 10.00 Mostly Cloudy SCT055 BKN090 70.9 47.5 43% 29.81 0.0
04 14:35 S 18 G 23 10.00 Mostly Cloudy BKN055 BKN080 70 46.6 43% 29.82 0.0
04 14:15 SW 14 G 21 10.00 Mostly Cloudy SCT055 BKN080 69.8 46.6 44% 29.82 0.0
04 13:55 SW 15 G 24 10.00 Mostly Cloudy SCT060 BKN070 BKN090 68.7 45.1 70.3 54.3 43% 29.83 0.0
04 13:35 SW 12 G 22 10.00 Partly Cloudy SCT070 SCT090 67.8 44.6 43% 29.83 0.0
04 13:15 SW 14 G 23 10.00 Fair CLR 68.4 44.4 42% 29.84 0.0
04 12:55 SW 10 G 18 10.00 Fair CLR 67.5 43.3 42% 29.85 0.0
04 12:35 S 14 G 21 10.00 Fair CLR 66.7 42.8 42% 29.86 0.0
04 12:15 SW 13 G 17 10.00 Fair CLR 66 42.6 43% 29.87 0.0
04 11:55 SW 10 10.00 Fair CLR 66 43.2 44% 29.87 0.0
04 11:35 W 13 G 20 10.00 Partly Cloudy SCT070 64.4 41.4 43% 29.88 0.0
04 11:15 SW 15 G 22 10.00 Mostly Cloudy SCT070 BKN080 64 41 43% 29.89 0.0
04 10:55 SW 15 G 22 10.00 Mostly Cloudy BKN080 63 40.1 43% 29.89 0.0
04 10:35 SW 16 G 21 10.00 Fair CLR 62.8 39.9 43% 29.89 0.0
04 10:15 SW 13 G 21 10.00 Fair CLR 61.9 39.6 44% 29.89 0.0
04 09:55 SW 12 G 20 10.00 Fair CLR 60.8 37.8 43% 29.89 0.0
04 09:35 SW 13 G 21 10.00 Partly Cloudy SCT070 SCT085 60.1 37.8 44% 29.89 0.0
04 09:15 SW 13 G 21 10.00 Partly Cloudy SCT070 59.5 37.6 44% 29.9 0.0
04 08:55 SW 13 G 22 10.00 Fair CLR 58.3 36.5 44% 29.9 0.0
04 08:35 SW 12 G 21 10.00 Fair CLR 57.2 35.6 44% 29.9 0.0
04 08:15 SW 12 G 18 10.00 Fair CLR 56.1 34.9 45% 29.89 0.0
04 07:55 SW 10 10.00 Mostly Cloudy BKN070 54 35.6 54.3 48.6 50% 29.89 0.0
04 07:35 SW 9 10.00 Overcast BKN070 OVC080 53.1 35.8 52% 29.9 0.0
04 07:15 SW 8 10.00 Mostly Cloudy BKN070 BKN090 51.8 35.8 55% 29.9 0.0
04 06:55 SW 8 10.00 Partly Cloudy SCT070 SCT090 50.4 34.9 55% 29.9 0.0
04 06:35 SW 10 10.00 Overcast OVC070 50.9 34 52% 29.9 0.0
04 06:15 SW 7 10.00 Mostly Cloudy BKN070 BKN110 50.5 33.1 51% 29.91 0.0
04 05:55 SW 8 10.00 Overcast OVC110 51.3 32.2 48% 29.9 0.0
04 05:15 SW 9 10.00 Overcast OVC090 51.4 31.1 46% 29.92 0.0
04 04:55 SW 10 10.00 Overcast SCT065 OVC090 51.6 30.2 44% 29.93 0.0
04 04:35 SW 8 10.00 Overcast SCT065 OVC100 51.1 30.6 45% 29.93 0.0
04 04:15 SW 8 10.00 Overcast OVC065 50.9 30.9 46% 29.93 0.0
04 03:55 SW 5 10.00 Overcast BKN065 OVC075 50.4 31.3 48% 29.93 0.0
04 03:35 SW 5 10.00 Overcast OVC075 50 31.5 49% 49 29.93 0.0
04 03:15 SW 6 10.00 Overcast OVC070 50 31.3 49% 48 29.94 0.0
04 02:55 SW 5 10.00 Overcast OVC070 49.6 31.3 49% 48 29.94 0.0
04 02:35 SW 6 10.00 Overcast OVC070 49.6 31.1 49% 48 29.95 0.0
04 01:55 SW 3 10.00 Overcast OVC070 48.4 31.3 53.4 46.8 52% 29.96 0.0
04 01:15 SW 5 10.00 Overcast OVC070 48.7 30.2 49% 47 29.96 0.0
04 00:55 SW 5 10.00 Overcast OVC070 47.7 29.8 50% 46 29.96 0.0
04 00:35 SW 5 10.00 Mostly Cloudy BKN070 47.3 29.7 50% 46 29.96 0.0
04 00:15 SW 3 10.00 Fair CLR 47.7 29.1 49% 29.96 0.0
03 23:55 SW 3 10.00 Fair CLR 47.1 29.7 51% 29.96 0.0
03 23:35 SW 5 10.00 Fair CLR 47.5 29.7 50% 46 29.96 0.0
03 23:15 SW 5 10.00 Fair CLR 48.2 29.1 48% 47 29.97 0.0
03 22:55 SW 5 10.00 Fair CLR 47.8 29.7 49% 46 29.97 0.0
03 22:35 SW 3 10.00 Fair CLR 48.4 29.7 48% 29.97 0.0
03 22:15 Calm 10.00 Fair CLR 48.7 29.7 48% 29.97 0.0
03 21:55 SW 3 10.00 Fair CLR 49.3 29.5 47% 29.97 0.0
03 21:35 SW 3 10.00 Fair CLR 50 29.8 46% 29.97 0.0
03 21:15 S 5 10.00 Fair CLR 50 30.6 47% 49 29.96 0.0
03 20:55 S 3 10.00 Fair CLR 50.7 30 45% 29.96 0.0
03 20:15 W 3 10.00 Fair CLR 52.7 29.8 42% 29.96 0.0
03 19:55 SW 5 10.00 Fair CLR 53.6 28.9 59.7 53.4 39% 29.96 0.0
03 19:35 W 6 10.00 Fair CLR 54.7 28 36% 29.96 0.0
03 19:15 W 10 10.00 Partly Cloudy SCT070 55.8 28.2 35% 29.96 0.0
03 18:55 W 8 10.00 Mostly Cloudy BKN070 56.5 28.4 34% 29.96 0.0
03 18:35 SW 7 10.00 Overcast OVC070 57.2 28.4 33% 29.97 0.0
03 18:15 SW 8 10.00 Mostly Cloudy BKN070 56.3 27.7 33% 29.97 0.0
03 17:55 W 13 10.00 Partly Cloudy SCT070 56.7 27 32% 29.97 0.0
03 17:35 W 13 10.00 Partly Cloudy SCT070 57.9 27.9 32% 29.96 0.0
03 17:15 W 12 10.00 Partly Cloudy SCT070 58.1 28.4 32% 29.96 0.0
03 16:55 W 8 10.00 Mostly Cloudy BKN070 57.2 27.7 32% 29.97 0.0
03 16:35 W 6 10.00 Overcast OVC070 58.1 29.3 33% 29.98 0.0
03 16:15 NW 8 10.00 Overcast OVC070 57 29.5 35% 29.98 0.0
03 15:55 W 10 G 18 10.00 Overcast OVC070 55.6 28.4 35% 29.99 0.0
03 15:35 W 13 10.00 Mostly Cloudy BKN070 56.5 27.7 33% 30 0.0
03 15:15 W 16 G 20 10.00 Mostly Cloudy BKN070 56.7 28.2 34% 30.01 0.0
03 14:55 W 14 10.00 Partly Cloudy SCT070 57 28.6 34% 30.01 0.0
03 14:35 W 9 G 20 10.00 Partly Cloudy SCT070 55.9 28.2 35% 30.02 0.0
03 14:15 W 12 10.00 Partly Cloudy SCT070 56.8 30 36% 30.02 0.0
03 13:55 W 8 G 21 10.00 Partly Cloudy SCT065 54.7 27 55.9 37.9 34% 30.03 0.0
03 13:35 W 12 G 20 10.00 Fair CLR 54.1 26.4 34% 30.04 0.0
03 13:15 W 10 G 18 10.00 Fair CLR 54.1 26.8 35% 30.04 0.0
03 12:55 SW 10 G 20 10.00 Fair CLR 52.5 26.2 36% 30.05 0.0
03 12:35 W 13 G 20 10.00 Fair CLR 52.3 27.3 38% 30.05 0.0
03 12:15 SW 13 G 21 10.00 Fair CLR 51.6 27.3 39% 30.06 0.0
03 11:55 W 15 G 20 10.00 Fair CLR 50.7 27.1 40% 30.06 0.0
03 11:35 SW 12 10.00 Fair CLR 50.4 28.2 42% 30.07 0.0
03 11:15 W 9 G 16 10.00 Fair CLR 49.8 27.5 42% 47 30.07 0.0
03 10:55 W 8 10.00 Fair CLR 49.3 28.9 46% 46 30.07 0.0
03 10:35 W 12 G 17 10.00 Fair CLR 47.3 28 47% 43 30.07 0.0
03 10:15 W 7 10.00 Fair CLR 46.9 30.2 52% 44 30.07 0.0
03 09:55 W 14 G 18 10.00 Partly Cloudy SCT036 45.9 29.7 53% 40 30.08 0.0
03 09:35 SW 9 10.00 Partly Cloudy SCT034 44.4 31.5 60% 40 30.08 0.0
03 09:15 SW 10 10.00 Fair CLR 43.2 32.2 65% 38 30.08 0.0
03 08:35 SW 7 10.00 Fair CLR 40.6 32.9 74% 37 30.08 0.0
03 08:15 SW 7 10.00 Fair CLR 39.2 33.4 80% 35 30.08 0.0
03 07:55 SW 7 10.00 Fair CLR 37.8 33.4 38.1 33.4 84% 33 30.07 0.0
03 07:35 SW 6 10.00 Fair CLR 36.5 33.4 89% 32 30.06 0.0
03 07:15 SW 5 10.00 Fair CLR 34.9 32.7 92% 31 30.06 0.0
03 06:55 SW 3 10.00 Fair CLR 34 32.2 93% 30.05 0.0
03 06:35 SW 3 10.00 Fair CLR 33.6 31.8 93% 30.04 0.0
03 06:15 SW 5 10.00 Fair CLR 33.8 31.8 92% 30 30.04 0.0
03 05:55 SW 5 10.00 Fair CLR 33.8 32 93% 30 30.03 0.0
03 05:35 SW 5 10.00 Partly Cloudy SCT070 34.2 32.2 92% 31 30.03 0.0
03 05:15 SW 3 10.00 Overcast OVC070 34.9 32.9 93% 30.03 0.0
03 04:55 SW 5 10.00 Overcast OVC070 34.9 33.1 93% 31 30.03 0.0
03 04:35 SW 3 10.00 Overcast OVC070 34.5 32.9 94% 30.03 0.0
03 04:15 SW 5 10.00 Overcast OVC070 34.5 32.7 93% 31 30.03 0.0
03 03:55 SW 5 10.00 Overcast OVC070 34.3 32.5 93% 31 30.02 0.0
03 03:35 SW 3 10.00 Overcast OVC070 34.5 32.4 92% 30.02 0.0
03 03:15 W 3 10.00 Mostly Cloudy BKN070 35.1 31.6 87% 30.02 0.0
03 02:55 W 5 10.00 Fair CLR 35.1 31.6 87% 32 30.01 0.0
03 02:35 W 3 10.00 Fair CLR 35.8 32 86% 30.01 0.0
03 02:15 W 5 10.00 Mostly Cloudy BKN075 36.5 32.2 84% 33 30.01 0.0
03 01:55 W 3 10.00 Overcast OVC075 37.2 32.4 41.9 37.2 83% 30.01 0.0
03 01:35 W 5 10.00 Overcast OVC075 37.9 32.7 82% 35 30.01 0.0
03 01:15 W 3 10.00 Overcast OVC075 38.5 33.1 81% 30.01 0.0
03 00:55 W 3 10.00 Overcast SCT070 OVC075 38.7 34 83% 30.02 0.0
03 00:35 W 3 10.00 Overcast BKN070 OVC080 38.8 33.4 81% 30.02 0.0
03 00:15 W 3 10.00 Overcast BKN060 OVC080 39 33.6 81% 30.02 0.0
02 23:55 Calm 10.00 Overcast OVC060 39.4 33.8 80% 30.02 0.0
02 23:35 Calm 10.00 Overcast OVC060 39.7 33.8 79% 30.02 0.0
02 23:15 Calm 10.00 Overcast OVC070 39.7 33.3 78% 30.02 0.0
02 22:55 Calm 10.00 Overcast OVC070 39.9 32.7 76% 30.02 0.0
02 22:35 Calm 10.00 Overcast BKN070 OVC075 40.1 32.5 74% 30.03 0.0
02 22:15 W 5 10.00 Overcast OVC070 40.3 32.4 73% 38 30.03 0.0
02 21:55 W 3 10.00 Overcast SCT070 OVC080 40.3 32.9 75% 30.03 0.0
02 21:35 W 3 10.00 Overcast OVC070 40.5 32.5 73% 30.02 0.0
02 21:15 W 3 10.00 Overcast OVC070 40.6 32.5 73% 30.02 0.0
02 20:55 NW 5 10.00 Overcast OVC080 41 31.6 69% 38 30.02 0.0
02 20:35 NW 3 10.00 Overcast OVC080 41 32 70% 30.01 0.0
02 20:15 Calm 10.00 Overcast SCT041 OVC080 41.4 32 69% 30.01 0.0
02 19:55 NW 6 10.00 Overcast SCT030 BKN070 OVC080 42.1 32.2 49.5 41.9 68% 39 30 0.0
02 19:35 NW 7 10.00 Overcast OVC080 42.6 32.4 67% 39 30 0.0
02 19:15 NW 6 10.00 Overcast OVC080 43.2 32 65% 40 29.99 0.0
02 18:55 N 9 10.00 Light Rain SCT034 BKN046 OVC080 43.7 32.5 65% 39 29.99 0.0
02 18:35 NW 8 10.00 Overcast BKN032 BKN039 OVC080 44.1 32.5 64% 40 29.99 0.0
02 18:15 NW 10 10.00 Overcast SCT032 OVC080 44.4 32 62% 40 29.98 0.0
02 17:55 N 7 10.00 Overcast OVC070 45.1 31.6 59% 42 29.97 0.0
02 17:35 NW 7 10.00 Overcast OVC070 45.1 32.4 61% 42 29.97 0.0
02 17:15 NW 8 10.00 Overcast SCT048 OVC070 45.7 32.5 60% 42 29.97 0.0
02 16:55 N 10 10.00 Overcast SCT042 SCT048 OVC070 46 32.9 60% 42 29.97 0.0
02 16:35 NW 9 10.00 Overcast SCT040 SCT050 OVC070 47.1 31.8 55% 43 29.96 0.0
02 16:15 NW 8 10.00 Overcast SCT042 BKN050 OVC070 47.5 31.1 53% 44 29.96 0.0
02 15:55 NW 9 10.00 Overcast BKN044 OVC070 48 31.3 52% 44 29.96 0.0
02 15:35 NW 12 10.00 Overcast SCT046 OVC060 48.9 30.2 49% 45 29.97 0.0
02 15:15 NW 13 10.00 Overcast OVC070 47.5 29.7 50% 43 29.97 0.0
02 14:55 NW 12 G 16 10.00 Overcast SCT060 OVC070 47.7 30.6 52% 43 29.98 0.0
02 14:35 NW 9 10.00 Overcast SCT046 OVC060 48.4 30.6 50% 45 29.98 0.0
02 14:15 W 12 10.00 Overcast SCT046 BKN050 OVC070 46.9 29.8 52% 42 29.98 0.0
02 13:55 W 10 G 17 10.00 Overcast SCT046 SCT050 OVC070 48.4 30.4 48.9 37.6 50% 44 29.98 0.0
02 13:35 NW 9 10.00 Overcast SCT046 OVC050 47.1 30.2 52% 43 29.98 0.0
02 13:15 NW 9 10.00 Overcast OVC050 46 30.4 54% 42 29.98 0.0
02 12:55 W 8 10.00 Overcast SCT048 OVC055 46.2 29.3 52% 43 29.98 0.0
02 12:35 NW 7 10.00 Overcast SCT039 SCT048 OVC055 46.8 30.6 53% 44 29.98 0.0
02 12:15 NW 7 10.00 Overcast BKN037 OVC043 45.3 31.8 59% 42 29.99 0.0
02 11:55 W 3 10.00 Overcast OVC034 45.9 31.8 58% 29.99 0.0
02 11:35 NW 7 10.00 Overcast BKN034 BKN043 OVC050 44.6 32.4 62% 41 30 0.0
02 11:15 SW 6 10.00 Overcast BKN031 SCT039 OVC048 44.4 33.4 65% 42 30 0.0
02 10:55 W 10 10.00 Mostly Cloudy SCT027 SCT034 BKN050 44.2 31.6 61% 39 29.99 0.0
02 10:35 W 5 10.00 Overcast BKN028 BKN039 OVC050 43.5 33.6 68% 41 29.99 0.0
02 10:15 SW 7 10.00 Overcast SCT021 BKN026 OVC031 44.8 36.3 72% 41 30 0.0
02 09:55 W 5 10.00 Overcast SCT016 BKN021 OVC029 42.3 34.3 74% 40 29.99 0.0
02 09:35 W 7 10.00 Mostly Cloudy SCT013 SCT031 BKN046 42.3 36.5 80% 38 29.99 0.0
02 08:55 W 5 10.00 Mostly Cloudy SCT026 BKN046 39.7 37.8 93% 37 30 0.0
02 08:35 W 3 10.00 Partly Cloudy SCT028 SCT046 SCT065 38.7 37.4 95% 30.01 0.0
02 08:15 Calm 10.00 Mostly Cloudy BKN065 38.5 37.6 97% 30 0.0
02 07:55 Calm 10.00 Overcast SCT030 OVC065 37.4 36.9 37.6 34.7 98% 30.01 0.0
02 07:35 Calm 5.00 Fog/Mist BKN028 OVC055 36.9 36.3 98% 30.02 0.0
02 07:15 Calm 4.00 Fog/Mist OVC026 36.5 36 98% 30.02 0.0
02 06:55 Calm 4.00 Fog/Mist SCT026 OVC050 36.1 35.6 98% 30.01 0.0
02 06:35 Calm 2.50 Fog/Mist SCT027 BKN060 BKN070 35.8 35.2 98% 30.01 0.0
02 06:15 Calm 5.00 Fog/Mist BKN027 36.5 35.8 97% 30 0.0
02 05:55 W 3 5.00 Fog/Mist OVC027 36.3 35.8 98% 30.01 0.0
02 05:35 W 3 7.00 Fog/Mist OVC029 36.9 36.1 97% 30.01 0.0
02 05:15 Calm 7.00 Overcast OVC029 36.7 36 97% 30 0.0
02 04:55 Calm 7.00 Overcast OVC027 36.7 36 97% 30 0.0
02 04:35 Calm 7.00 Fog/Mist SCT021 OVC027 36.7 36 97% 30.01 0.0
02 04:15 Calm 10.00 Overcast OVC023 36.9 36.1 97% 30 0.0
02 03:55 Calm 7.00 Overcast OVC021 36.1 35.4 97% 30 0.0
02 03:35 Calm 10.00 Mostly Cloudy BKN021 36.1 35.4 97% 30 0.0
02 03:15 Calm 7.00 Partly Cloudy SCT021 34.7 33.8 97% 30 0.0
02 02:55 Calm 10.00 Fair CLR 35.6 34.7 97% 30.01 0.0
02 02:35 S 3 10.00 Fair CLR 36.1 35.4 97% 30.01 0.0
02 02:15 SW 3 10.00 Fair CLR 36.3 35.4 97% 30.01 0.0
02 01:55 SW 3 10.00 Fair CLR 36.3 35.4 46.9 36.3 97% 30.01 0.0 0.02
02 01:35 S 3 10.00 Fair CLR 36.9 36 97% 30.02 0.0
02 01:15 Calm 10.00 Fair CLR 37 36.1 97% 30.01 0.0
02 00:55 W 3 10.00 Fair CLR 37.2 36 95% 30.01 0.0
02 00:35 Calm 10.00 Fair CLR 37.9 36.5 95% 30.01 0.0
02 00:15 Calm 10.00 Fair CLR 39 36.7 91% 30.01 0.0
01 23:55 Calm 10.00 Partly Cloudy SCT021 39.4 36.7 90% 30.02 0.0
01 23:35 W 3 10.00 Mostly Cloudy SCT013 BKN021 40.5 37.2 88% 30.01 0.0
01 23:15 NW 7 10.00 Mostly Cloudy SCT012 BKN019 40.3 37.4 90% 36 30 0.0
01 22:55 W 6 10.00 Partly Cloudy SCT017 SCT035 40.8 37.4 88% 37 29.99 0.0 0.02
01 22:35 W 8 10.00 Mostly Cloudy SCT013 SCT030 BKN035 41.5 37.6 86% 37 29.98 0.0
01 22:15 NW 10 G 20 10.00 Overcast SCT013 BKN018 OVC027 43 39.9 89% 38 29.99 0.0
01 21:55 W 7 10.00 Overcast SCT016 BKN026 OVC046 43.7 40.8 90% 40 29.97 0.0 0.01
01 21:15 W 3 10.00 Overcast BKN017 BKN049 OVC080 44.8 41.2 87% 29.96 0.0 0.01
01 20:55 W 9 10.00 Overcast BKN017 BKN022 OVC048 45.3 41.7 87% 41 29.95 0.0 0.01
01 20:35 W 10 5.00 Light Rain Fog/Mist SCT017 BKN024 OVC034 46.8 43.9 90% 42 29.92 0.0 0.01
01 20:15 SW 6 10.00 Overcast BKN030 BKN044 OVC080 46.9 43.7 89% 45 29.89 0.0
01 19:55 SW 7 10.00 Overcast SCT048 SCT060 OVC070 46.8 43.7 58.5 46.8 89% 44 29.89 0.0 0.02
01 19:35 SW 5 10.00 Overcast SCT050 OVC060 46.9 43.9 89% 45 29.89 0.0
01 19:15 SW 6 10.00 Light Rain OVC060 46.8 43.7 89% 44 29.89 0.0
01 18:55 S 5 10.00 Overcast SCT021 SCT040 OVC050 47.1 43.5 87% 46 29.89 0.0 0.02
01 18:35 S 8 10.00 Light Rain SCT021 OVC041 47.3 42.8 84% 44 29.89 0.0 0.01
01 18:15 S 3 10.00 Light Rain SCT021 OVC044 47.8 42.3 81% 29.9 0.0
01 17:55 W 3 10.00 Light Rain BKN044 OVC050 48.4 41.4 77% 29.9 0.0
01 17:35 W 6 10.00 Overcast BKN055 OVC070 49.6 40.5 71% 48 29.89 0.0
01 17:15 NW 8 10.00 Overcast OVC065 50.9 39.6 65% 29.88 0.0
01 16:55 W 7 10.00 Overcast OVC065 53.8 34 47% 29.86 0.0
01 16:35 NW 8 10.00 Overcast SCT050 BKN065 OVC075 54.1 33.8 46% 29.86 0.0
01 16:15 W 7 G 17 10.00 Overcast SCT048 BKN055 OVC070 55.6 32.4 41% 29.86 0.0
01 15:55 W 9 G 18 10.00 Overcast SCT047 BKN055 OVC075 55.4 32.4 42% 29.86 0.0
Date Time (edt) Wind (mph) Vis. (mi.) Weather Sky Cond. Air Dwpt Max. Min. Relative Humidity Wind Chill (°F) Heat Index (°F) altimeter (in) sea level (mb) 1 hr 3 hr 6 hr
6 hour
Temperature (ºF) Pressure Precipitation (in)